createdAt,value
2019-03-25T00:01:07.607Z,45.83
2019-03-25T00:03:37.524Z,40.88
2019-03-25T00:06:06.422Z,44.18
2019-03-25T00:08:34.899Z,44.63
2019-03-25T00:11:03.355Z,47.20
2019-03-25T00:13:31.810Z,49.20
2019-03-25T00:16:00.369Z,49.98
2019-03-25T00:18:29.159Z,39.42
2019-03-25T00:20:57.630Z,49.18
2019-03-25T00:23:26.437Z,45.75
2019-03-25T00:25:54.907Z,39.80
2019-03-25T00:28:23.623Z,34.30
2019-03-25T00:30:52.505Z,35.03
2019-03-25T00:33:20.962Z,41.25
2019-03-25T00:35:49.439Z,39.48
2019-03-25T00:38:18.266Z,36.80
2019-03-25T00:40:46.743Z,36.98
2019-03-25T00:43:15.199Z,37.63
2019-03-25T00:45:43.679Z,33.65
2019-03-25T00:48:12.135Z,35.23
2019-03-25T00:50:40.902Z,23.80
2019-03-25T00:53:09.351Z,28.40
2019-03-25T00:55:37.827Z,34.15
2019-03-25T00:58:06.672Z,35.28
2019-03-25T01:00:35.566Z,29.57
2019-03-25T01:03:04.090Z,32.90
2019-03-25T01:05:32.567Z,36.68
2019-03-25T01:08:01.332Z,33.85
2019-03-25T01:10:30.775Z,33.50
2019-03-25T01:12:59.524Z,29.72
2019-03-25T01:15:28.011Z,29.25
2019-03-25T01:17:56.907Z,26.90
2019-03-25T01:20:25.459Z,28.30
2019-03-25T01:22:54.111Z,25.23
2019-03-25T01:25:22.983Z,23.45
2019-03-25T01:27:51.435Z,22.87
2019-03-25T01:30:20.254Z,21.48
2019-03-25T01:32:48.703Z,20.35
2019-03-25T01:35:17.178Z,23.80
2019-03-25T01:37:45.626Z,21.05
2019-03-25T01:40:14.453Z,24.30
2019-03-25T01:42:43.299Z,24.92
2019-03-25T01:45:12.119Z,24.05
2019-03-25T01:47:40.651Z,22.58
2019-03-25T01:50:09.575Z,22.35
2019-03-25T01:52:38.367Z,21.65
2019-03-25T01:55:13.525Z,22.82
2019-03-25T01:57:37.082Z,22.42
2019-03-25T02:00:07.703Z,24.80
2019-03-25T02:02:36.231Z,22.48
2019-03-25T02:05:06.131Z,23.45
2019-03-25T02:07:34.911Z,22.77
2019-03-25T02:10:05.215Z,23.02
2019-03-25T02:12:33.691Z,20.43
2019-03-25T02:15:02.150Z,20.20
2019-03-25T02:17:31.004Z,20.10
2019-03-25T02:19:59.463Z,21.55
2019-03-25T02:22:28.022Z,20.32
2019-03-25T02:24:56.567Z,21.97
2019-03-25T02:27:25.039Z,22.07
2019-03-25T02:29:53.494Z,19.00
2019-03-25T02:32:22.331Z,18.57
2019-03-25T02:34:51.227Z,17.75
2019-03-25T02:37:19.771Z,17.05
2019-03-25T02:39:48.223Z,18.27
2019-03-25T02:42:16.706Z,18.48
2019-03-25T02:44:45.595Z,15.25
2019-03-25T02:47:14.123Z,17.00
2019-03-25T02:49:42.584Z,16.57
2019-03-25T02:52:11.456Z,16.02
2019-03-25T02:54:39.975Z,18.42
2019-03-25T02:57:08.557Z,15.40
2019-03-25T02:59:37.085Z,15.95
2019-03-25T03:02:05.816Z,17.30
2019-03-25T03:04:34.273Z,15.40
2019-03-25T03:07:02.744Z,16.60
2019-03-25T03:09:31.562Z,15.28
2019-03-25T03:12:00.460Z,13.20
2019-03-25T03:14:28.984Z,17.85
2019-03-25T03:16:57.793Z,17.75
2019-03-25T03:19:26.633Z,17.98
2019-03-25T03:21:55.176Z,17.15
2019-03-25T03:24:23.627Z,16.73
2019-03-25T03:26:52.104Z,17.00
2019-03-25T03:29:20.636Z,20.25
2019-03-25T03:31:49.468Z,18.23
2019-03-25T03:34:18.006Z,17.77
2019-03-25T03:36:46.847Z,15.25
2019-03-25T03:39:15.303Z,12.65
2019-03-25T03:42:03.116Z,12.73
2019-03-25T03:44:31.581Z,13.18
2019-03-25T03:47:00.445Z,14.58
2019-03-25T03:49:28.976Z,17.07
2019-03-25T03:52:03.494Z,19.62
2019-03-25T03:54:32.456Z,22.10
2019-03-25T03:57:01.649Z,22.35
2019-03-25T03:59:30.133Z,19.45
2019-03-25T04:01:58.684Z,22.45
2019-03-25T04:04:27.209Z,23.83
2019-03-25T04:06:55.743Z,29.90
2019-03-25T04:09:24.222Z,28.15
2019-03-25T04:11:52.750Z,24.18
2019-03-25T04:14:21.228Z,24.05
2019-03-25T04:16:49.753Z,25.32
2019-03-25T04:19:18.303Z,26.45
2019-03-25T04:21:46.758Z,26.27
2019-03-25T04:24:15.504Z,22.62
2019-03-25T04:26:44.296Z,21.95
2019-03-25T04:29:13.099Z,22.45
2019-03-25T04:31:41.626Z,19.80
2019-03-25T04:34:10.733Z,21.60
2019-03-25T04:36:39.193Z,20.72
2019-03-25T04:39:08.611Z,21.40
2019-03-25T04:41:37.212Z,20.23
2019-03-25T04:44:05.685Z,19.67
2019-03-25T04:46:34.134Z,19.35
2019-03-25T04:49:02.924Z,21.82
2019-03-25T04:51:31.448Z,20.88
2019-03-25T04:53:59.922Z,22.13
2019-03-25T04:56:39.024Z,21.10
2019-03-25T04:58:59.214Z,18.87
2019-03-25T05:01:28.011Z,18.05
2019-03-25T05:03:57.008Z,19.10
2019-03-25T05:06:25.468Z,19.52
2019-03-25T05:08:53.937Z,20.97
2019-03-25T05:11:30.457Z,21.62
2019-03-25T05:13:52.901Z,21.55
2019-03-25T05:16:21.689Z,19.45
2019-03-25T05:18:50.165Z,18.87
2019-03-25T05:21:18.963Z,22.98
2019-03-25T05:23:47.437Z,25.92
2019-03-25T05:26:15.886Z,22.90
2019-03-25T05:28:44.363Z,20.32
2019-03-25T05:31:12.823Z,21.10
2019-03-25T05:33:41.379Z,23.98
2019-03-25T05:36:09.907Z,26.00
2019-03-25T05:38:38.776Z,25.12
2019-03-25T05:41:07.566Z,24.10
2019-03-25T05:43:36.039Z,25.30
2019-03-25T05:46:04.846Z,23.92
2019-03-25T05:48:33.319Z,22.48
2019-03-25T05:51:02.119Z,20.25
2019-03-25T05:53:30.915Z,21.45
2019-03-25T05:55:59.370Z,18.57
2019-03-25T05:58:27.821Z,15.95
2019-03-25T06:00:56.291Z,20.40
2019-03-25T06:03:25.067Z,19.80
2019-03-25T06:05:53.535Z,22.62
2019-03-25T06:08:22.344Z,18.23
2019-03-25T06:10:50.818Z,18.80
2019-03-25T06:13:19.627Z,17.57
2019-03-25T06:15:48.367Z,18.42
2019-03-25T06:18:17.220Z,18.75
2019-03-25T06:20:45.764Z,22.25
2019-03-25T06:23:14.488Z,22.85
2019-03-25T06:25:43.036Z,24.18
2019-03-25T06:28:11.491Z,18.92
2019-03-25T06:30:40.251Z,20.82
2019-03-25T06:33:12.744Z,20.57
2019-03-25T06:35:39.271Z,19.62
2019-03-25T06:38:07.724Z,15.65
2019-03-25T06:40:36.549Z,16.27
2019-03-25T06:43:05.002Z,19.87
2019-03-25T06:45:33.833Z,19.45
2019-03-25T06:48:02.728Z,18.37
2019-03-25T06:50:31.515Z,18.67
2019-03-25T06:52:59.963Z,15.90
2019-03-25T06:55:28.443Z,18.00
2019-03-25T06:57:57.175Z,20.60
2019-03-25T07:00:25.650Z,20.88
2019-03-25T07:02:54.100Z,21.80
2019-03-25T07:05:22.598Z,23.18
2019-03-25T07:07:51.046Z,25.00
2019-03-25T07:10:40.849Z,23.15
2019-03-25T07:13:09.303Z,21.80
2019-03-25T07:15:37.775Z,21.37
2019-03-25T07:18:06.495Z,23.05
2019-03-25T07:20:34.963Z,18.27
2019-03-25T07:23:03.736Z,12.88
2019-03-25T07:25:32.627Z,13.40
2019-03-25T07:28:01.419Z,13.75
2019-03-25T07:30:29.895Z,12.73
2019-03-25T07:32:58.696Z,13.68
2019-03-25T07:35:27.173Z,13.70
2019-03-25T07:37:55.623Z,16.77
2019-03-25T07:40:24.458Z,17.23
2019-03-25T07:42:52.911Z,15.15
2019-03-25T07:45:21.388Z,14.80
2019-03-25T07:47:49.847Z,14.60
2019-03-25T07:50:18.651Z,16.45
2019-03-25T07:52:47.107Z,14.35
2019-03-25T07:55:15.591Z,15.10
2019-03-25T07:57:48.467Z,21.17
2019-03-25T08:00:15.216Z,20.52
2019-03-25T08:02:43.749Z,21.77
2019-03-25T08:05:12.338Z,22.35
2019-03-25T08:07:40.879Z,22.02
2019-03-25T08:10:10.311Z,20.43
2019-03-25T08:12:39.181Z,21.10
2019-03-25T08:15:08.089Z,22.30
2019-03-25T08:17:36.891Z,19.75
2019-03-25T08:20:08.323Z,20.10
2019-03-25T08:22:37.111Z,19.35
2019-03-25T08:25:06.713Z,20.00
2019-03-25T08:27:35.625Z,17.12
2019-03-25T08:30:06.917Z,18.87
2019-03-25T08:32:35.387Z,17.92
2019-03-25T08:35:04.716Z,15.25
2019-03-25T08:37:33.191Z,12.15
2019-03-25T08:40:01.686Z,11.12
2019-03-25T08:42:30.281Z,8.90
2019-03-25T08:44:58.979Z,6.90
2019-03-25T08:47:27.454Z,5.83
2019-03-25T08:49:56.192Z,5.87
2019-03-25T08:52:24.734Z,4.95
2019-03-25T08:54:53.799Z,6.45
2019-03-25T08:57:22.408Z,5.55
2019-03-25T08:59:50.859Z,5.37
2019-03-25T09:02:19.997Z,4.05
2019-03-25T09:04:48.444Z,4.42
2019-03-25T09:07:16.910Z,3.35
2019-03-25T09:09:45.703Z,3.92
2019-03-25T09:12:14.177Z,3.62
2019-03-25T09:14:42.709Z,3.10
2019-03-25T09:17:11.251Z,3.30
2019-03-25T09:19:39.702Z,2.60
2019-03-25T09:22:08.764Z,2.80
2019-03-25T09:24:37.545Z,3.62
2019-03-25T09:27:06.006Z,2.50
2019-03-25T09:29:34.825Z,3.12
2019-03-25T09:32:03.619Z,5.22
2019-03-25T09:34:32.143Z,2.55
2019-03-25T09:37:00.995Z,2.72
2019-03-25T09:39:29.783Z,2.90
2019-03-25T09:41:58.264Z,4.33
2019-03-25T09:44:26.782Z,2.50
2019-03-25T09:46:55.555Z,3.27
2019-03-25T09:49:24.017Z,3.00
2019-03-25T09:51:53.006Z,3.35
2019-03-25T09:54:21.611Z,2.80
2019-03-25T09:56:50.420Z,3.15
2019-03-25T09:59:18.891Z,5.95
2019-03-25T10:01:47.341Z,3.58
2019-03-25T10:04:15.807Z,2.27
2019-03-25T10:06:44.263Z,2.80
2019-03-25T10:09:12.740Z,4.80
2019-03-25T10:11:41.195Z,4.47
2019-03-25T10:14:10.029Z,7.35
2019-03-25T10:16:38.555Z,12.05
2019-03-25T10:19:07.023Z,2.67
2019-03-25T10:21:35.563Z,2.87
2019-03-25T10:24:04.499Z,17.80
2019-03-25T10:26:33.008Z,2.55
2019-03-25T10:29:01.484Z,2.20
2019-03-25T10:31:30.379Z,2.55
2019-03-25T10:33:59.240Z,2.62
2019-03-25T10:36:27.703Z,2.27
2019-03-25T10:38:56.166Z,3.15
2019-03-25T10:41:24.627Z,2.92
2019-03-25T10:44:12.836Z,2.72
2019-03-25T10:46:41.291Z,2.02
2019-03-25T10:49:09.756Z,1.92
2019-03-25T10:51:38.596Z,1.60
2019-03-25T10:54:14.567Z,2.42
2019-03-25T10:56:49.046Z,2.72
2019-03-25T10:59:13.224Z,1.92
2019-03-25T11:01:41.957Z,2.33
2019-03-25T11:04:10.494Z,1.90
2019-03-25T11:06:39.228Z,4.20
2019-03-25T11:09:07.935Z,1.90
2019-03-25T11:11:36.720Z,1.75
2019-03-25T11:14:05.260Z,1.85
2019-03-25T11:16:33.996Z,1.77
2019-03-25T11:19:02.459Z,1.60
2019-03-25T11:21:30.911Z,1.40
2019-03-25T11:23:59.378Z,1.62
2019-03-25T11:26:28.144Z,1.47
2019-03-25T11:28:56.931Z,1.52
2019-03-25T11:31:25.382Z,1.42
2019-03-25T11:33:53.848Z,1.45
2019-03-25T11:36:22.371Z,2.50
2019-03-25T11:38:50.839Z,1.98
2019-03-25T11:41:19.291Z,1.37
2019-03-25T11:43:48.060Z,2.27
2019-03-25T11:46:16.847Z,1.57
2019-03-25T11:48:45.345Z,1.10
2019-03-25T11:51:14.223Z,2.33
2019-03-25T11:53:43.023Z,1.92
2019-03-25T11:56:11.540Z,1.35
2019-03-25T11:58:40.267Z,1.75
2019-03-25T12:01:08.711Z,2.12
2019-03-25T12:03:37.186Z,2.22
2019-03-25T12:06:05.705Z,1.82
2019-03-25T12:08:34.448Z,2.05
2019-03-25T12:11:03.240Z,1.80
2019-03-25T12:13:32.144Z,1.72
2019-03-25T12:16:00.685Z,1.85
2019-03-25T12:18:29.127Z,2.20
2019-03-25T12:20:57.598Z,1.67
2019-03-25T12:23:26.729Z,1.80
2019-03-25T12:25:55.291Z,2.33
2019-03-25T12:28:23.744Z,1.55
2019-03-25T12:30:53.098Z,1.50
2019-03-25T12:33:21.547Z,1.57
2019-03-25T12:35:50.354Z,2.50
2019-03-25T12:38:19.243Z,2.45
2019-03-25T12:40:47.713Z,2.15
2019-03-25T12:43:16.522Z,2.08
2019-03-25T12:45:45.316Z,2.58
2019-03-25T12:48:14.211Z,2.20
2019-03-25T12:50:42.683Z,2.45
2019-03-25T12:53:11.499Z,2.70
2019-03-25T12:55:40.106Z,1.62
2019-03-25T12:58:08.556Z,1.70
2019-03-25T13:00:42.812Z,0.85
2019-03-25T13:03:11.337Z,1.20
2019-03-25T13:05:40.164Z,1.20
2019-03-25T13:08:08.615Z,1.27
2019-03-25T13:10:37.083Z,1.25
2019-03-25T13:13:05.937Z,17.73
2019-03-25T13:15:34.403Z,2.12
2019-03-25T13:18:02.851Z,5.35
2019-03-25T13:20:31.391Z,1.50
2019-03-25T13:23:00.175Z,2.45
2019-03-25T13:25:28.963Z,1.72
2019-03-25T13:27:57.755Z,0.70
2019-03-25T13:30:26.547Z,1.20
2019-03-25T13:32:55.347Z,0.82
2019-03-25T13:35:24.139Z,1.30
2019-03-25T13:37:52.660Z,1.10
2019-03-25T13:40:21.122Z,2.52
2019-03-25T13:42:49.575Z,3.62
2019-03-25T13:45:18.392Z,2.15
2019-03-25T13:47:47.183Z,1.10
2019-03-25T13:50:16.282Z,2.80
2019-03-25T13:52:45.074Z,0.93
2019-03-25T13:55:13.872Z,1.12
2019-03-25T13:57:42.668Z,1.70
2019-03-25T14:00:11.452Z,1.65
2019-03-25T14:02:40.351Z,1.98
2019-03-25T14:05:09.055Z,0.65
2019-03-25T14:07:37.829Z,1.57
2019-03-25T14:10:08.135Z,0.98
2019-03-25T14:12:36.589Z,0.90
2019-03-25T14:15:08.544Z,0.35
2019-03-25T14:17:36.994Z,0.80
2019-03-25T14:20:07.872Z,0.78
2019-03-25T14:22:36.375Z,0.75
2019-03-25T14:25:05.707Z,1.10
2019-03-25T14:27:34.152Z,0.82
2019-03-25T14:30:10.048Z,0.68
2019-03-25T14:32:32.855Z,0.80
2019-03-25T14:35:01.622Z,0.82
2019-03-25T14:37:30.148Z,1.05
2019-03-25T14:39:58.670Z,1.07
2019-03-25T14:42:27.409Z,3.22
2019-03-25T14:44:55.930Z,0.80
2019-03-25T14:47:24.571Z,0.85
2019-03-25T14:49:53.347Z,0.93
2019-03-25T14:52:21.814Z,0.88
2019-03-25T14:54:50.623Z,0.98
2019-03-25T14:57:19.420Z,1.62
2019-03-25T14:59:50.113Z,0.55
2019-03-25T15:02:18.751Z,1.20
2019-03-25T15:04:47.524Z,1.32
2019-03-25T15:07:16.327Z,1.20
2019-03-25T15:09:44.779Z,1.22
2019-03-25T15:12:13.248Z,1.35
2019-03-25T15:14:41.694Z,1.47
2019-03-25T15:17:10.162Z,1.75
2019-03-25T15:19:38.963Z,1.62
2019-03-25T15:22:07.859Z,2.45
2019-03-25T15:24:36.315Z,3.92
2019-03-25T15:27:05.139Z,2.47
2019-03-25T15:29:33.596Z,1.75
2019-03-25T15:32:02.066Z,1.22
2019-03-25T15:34:30.907Z,1.40
2019-03-25T15:36:59.800Z,1.70
2019-03-25T15:39:28.587Z,1.70
2019-03-25T15:41:57.055Z,1.57
2019-03-25T15:44:25.507Z,1.22
2019-03-25T15:46:55.999Z,1.62
2019-03-25T15:49:24.683Z,1.70
2019-03-25T15:51:53.153Z,1.62
2019-03-25T15:54:21.669Z,1.32
2019-03-25T15:56:50.401Z,1.55
2019-03-25T15:59:18.999Z,1.90
2019-03-25T16:01:47.835Z,2.25
2019-03-25T16:04:16.359Z,1.72
2019-03-25T16:06:45.111Z,1.80
2019-03-25T16:09:13.559Z,1.85
2019-03-25T16:11:42.113Z,1.57
2019-03-25T16:14:10.567Z,1.00
2019-03-25T16:16:39.035Z,1.80
2019-03-25T16:19:07.494Z,1.27
2019-03-25T16:21:36.333Z,1.72
2019-03-25T16:24:04.842Z,1.57
2019-03-25T16:26:33.606Z,1.50
2019-03-25T16:29:02.050Z,1.85
2019-03-25T16:31:30.519Z,2.52
2019-03-25T16:33:59.274Z,2.10
2019-03-25T16:36:27.724Z,1.98
2019-03-25T16:38:56.558Z,2.27
2019-03-25T16:41:25.079Z,1.37
2019-03-25T16:43:53.548Z,1.40
2019-03-25T16:46:22.081Z,1.45
2019-03-25T16:48:50.551Z,1.57
2019-03-25T16:51:19.011Z,1.60
2019-03-25T16:53:47.775Z,1.52
2019-03-25T16:56:16.226Z,1.27
2019-03-25T16:58:44.696Z,1.82
2019-03-25T17:01:13.435Z,1.47
2019-03-25T17:03:41.903Z,1.52
2019-03-25T17:06:10.351Z,1.30
2019-03-25T17:08:39.094Z,1.90
2019-03-25T17:11:07.569Z,2.12
2019-03-25T17:13:36.100Z,1.75
2019-03-25T17:16:04.547Z,1.80
2019-03-25T17:18:33.017Z,1.70
2019-03-25T17:21:01.837Z,2.08
2019-03-25T17:23:30.620Z,2.70
2019-03-25T17:25:59.067Z,2.22
2019-03-25T17:28:27.530Z,1.85
2019-03-25T17:30:55.983Z,1.90
2019-03-25T17:33:24.780Z,1.80
2019-03-25T17:35:53.680Z,2.08
2019-03-25T17:38:22.571Z,2.45
2019-03-25T17:40:51.347Z,2.30
2019-03-25T17:43:19.820Z,2.60
2019-03-25T17:45:48.267Z,2.25
2019-03-25T17:48:17.026Z,2.65
2019-03-25T17:50:45.915Z,2.25
2019-03-25T17:53:14.378Z,2.20
2019-03-25T17:55:42.839Z,2.02
2019-03-25T17:58:11.308Z,3.02
2019-03-25T18:01:00.123Z,2.22
2019-03-25T18:03:28.599Z,2.20
2019-03-25T18:05:57.123Z,2.10
2019-03-25T18:08:25.988Z,2.33
2019-03-25T18:10:55.335Z,2.35
2019-03-25T18:13:24.079Z,2.12
2019-03-25T18:15:52.541Z,2.72
2019-03-25T18:18:21.095Z,1.60
2019-03-25T18:20:49.608Z,2.37
2019-03-25T18:23:18.149Z,2.25
2019-03-25T18:25:46.603Z,2.72
2019-03-25T18:28:15.076Z,2.62
2019-03-25T18:30:43.523Z,2.27
2019-03-25T18:33:31.620Z,2.15
2019-03-25T18:36:00.066Z,2.37
2019-03-25T18:38:28.536Z,2.50
2019-03-25T18:40:56.994Z,2.65
2019-03-25T18:43:43.788Z,2.10
2019-03-25T18:46:12.310Z,1.62
2019-03-25T18:48:40.915Z,2.77
2019-03-25T18:51:09.767Z,2.20
2019-03-25T18:53:38.234Z,2.45
2019-03-25T18:56:06.686Z,2.05
2019-03-25T18:58:35.307Z,1.70
2019-03-25T19:01:03.936Z,1.57
2019-03-25T19:03:33.115Z,1.75
2019-03-25T19:06:01.655Z,1.95
2019-03-25T19:08:32.022Z,2.02
2019-03-25T19:11:00.920Z,1.60
2019-03-25T19:13:29.454Z,1.90
2019-03-25T19:15:57.906Z,1.30
2019-03-25T19:18:26.779Z,4.37
2019-03-25T19:20:55.571Z,1.70
2019-03-25T19:23:24.363Z,2.02
2019-03-25T19:25:52.836Z,1.60
2019-03-25T19:28:21.647Z,1.65
2019-03-25T19:30:50.207Z,2.08
2019-03-25T19:33:18.739Z,2.30
2019-03-25T19:35:47.490Z,2.37
2019-03-25T19:38:16.299Z,2.58
2019-03-25T19:40:45.197Z,2.30
2019-03-25T19:43:13.668Z,2.80
2019-03-25T19:45:42.479Z,2.27
2019-03-25T19:48:11.003Z,2.60
2019-03-25T19:50:39.759Z,2.83
2019-03-25T19:53:18.652Z,3.00
2019-03-25T19:55:39.179Z,2.47
2019-03-25T19:58:07.755Z,2.30
2019-03-25T20:00:40.343Z,2.45
2019-03-25T20:03:10.246Z,2.85
2019-03-25T20:05:39.062Z,3.27
2019-03-25T20:08:07.884Z,4.22
2019-03-25T20:10:38.043Z,3.15
2019-03-25T20:13:06.704Z,2.30
2019-03-25T20:15:45.434Z,3.22
2019-03-25T20:18:05.487Z,2.42
2019-03-25T20:20:33.955Z,3.25
2019-03-25T20:23:02.417Z,3.47
2019-03-25T20:25:30.900Z,3.92
2019-03-25T20:27:59.462Z,3.85
2019-03-25T20:30:28.245Z,3.50
2019-03-25T20:32:57.113Z,2.83
2019-03-25T20:35:25.591Z,3.27
2019-03-25T20:37:54.396Z,2.80
2019-03-25T20:40:22.868Z,2.65
2019-03-25T20:42:51.643Z,2.15
2019-03-25T20:45:20.110Z,2.20
2019-03-25T20:47:48.851Z,2.27
2019-03-25T20:50:17.751Z,2.75
2019-03-25T20:52:46.639Z,2.10
2019-03-25T20:55:15.653Z,2.75
2019-03-25T20:57:44.532Z,2.60
2019-03-25T21:00:13.937Z,3.00
2019-03-25T21:02:45.237Z,2.60
2019-03-25T21:05:13.072Z,3.08
2019-03-25T21:07:41.843Z,2.45
2019-03-25T21:10:10.973Z,2.50
2019-03-25T21:12:39.910Z,2.55
2019-03-25T21:15:08.836Z,2.45
2019-03-25T21:17:37.364Z,2.45
2019-03-25T21:20:08.588Z,2.95
2019-03-25T21:22:37.138Z,2.60
2019-03-25T21:25:07.078Z,1.85
2019-03-25T21:27:35.926Z,2.45
2019-03-25T21:30:06.872Z,2.60
2019-03-25T21:32:35.524Z,2.70
2019-03-25T21:35:05.975Z,2.42
2019-03-25T21:37:34.478Z,2.65
2019-03-25T21:40:03.084Z,2.70
2019-03-25T21:42:31.655Z,2.10
2019-03-25T21:45:00.297Z,1.90
2019-03-25T21:47:29.142Z,2.92
2019-03-25T21:49:58.035Z,2.40
2019-03-25T21:52:26.778Z,2.70
2019-03-25T21:54:55.298Z,3.08
2019-03-25T21:57:23.851Z,2.20
2019-03-25T21:59:52.374Z,2.25
2019-03-25T22:02:20.920Z,2.22
2019-03-25T22:04:49.538Z,2.00
2019-03-25T22:07:18.295Z,2.12
2019-03-25T22:09:46.748Z,2.58
2019-03-25T22:12:15.583Z,2.40
2019-03-25T22:14:44.038Z,3.15
2019-03-25T22:17:12.860Z,2.35
2019-03-25T22:19:41.756Z,2.50
2019-03-25T22:22:10.547Z,2.90
2019-03-25T22:24:39.015Z,2.60
2019-03-25T22:27:07.555Z,2.77
2019-03-25T22:29:36.318Z,3.33
2019-03-25T22:32:04.855Z,6.15
2019-03-25T22:34:33.587Z,3.58
2019-03-25T22:37:02.062Z,3.85
2019-03-25T22:39:30.511Z,3.35
2019-03-25T22:41:58.978Z,2.70
2019-03-25T22:44:27.439Z,2.80
2019-03-25T22:46:56.332Z,3.87
2019-03-25T22:49:24.855Z,3.70
2019-03-25T22:51:53.331Z,4.10
2019-03-25T22:54:21.782Z,3.80
2019-03-25T22:56:50.259Z,4.50
2019-03-25T22:59:19.065Z,5.15
2019-03-25T23:01:47.860Z,5.80
2019-03-25T23:04:16.652Z,4.20
2019-03-25T23:06:45.127Z,4.55
2019-03-25T23:09:13.587Z,3.83
2019-03-25T23:11:42.064Z,4.58
2019-03-25T23:14:10.791Z,3.77
2019-03-25T23:16:39.590Z,3.98
2019-03-25T23:19:08.383Z,3.02
2019-03-25T23:21:37.687Z,3.85
2019-03-25T23:24:06.202Z,3.20
2019-03-25T23:26:34.670Z,2.85
2019-03-25T23:29:03.124Z,2.92
2019-03-25T23:31:31.615Z,3.45
2019-03-25T23:34:00.122Z,3.12
2019-03-25T23:36:28.589Z,3.17
2019-03-25T23:38:57.395Z,3.22
2019-03-25T23:41:25.863Z,3.50
2019-03-25T23:43:54.315Z,3.40
2019-03-25T23:46:23.059Z,3.10
2019-03-25T23:48:51.511Z,3.52
2019-03-25T23:51:20.235Z,3.30
2019-03-25T23:53:48.708Z,3.58
2019-03-25T23:56:36.587Z,3.70
2019-03-25T23:59:05.045Z,3.90
